sensor_id;sensor_type;location;lat;lon;timestamp;pressure;altitude;pressure_sealevel;temperature;humidity
33161;BME280;19522;45.656;11.302;2023-12-22T00:01:08;96639.50;;;1.14;100.00
33161;BME280;19522;45.656;11.302;2023-12-22T00:03:34;96645.44;;;0.93;100.00
33161;BME280;19522;45.656;11.302;2023-12-22T00:05:59;96628.91;;;0.89;100.00
33161;BME280;19522;45.656;11.302;2023-12-22T00:08:28;96537.88;;;0.43;100.00
33161;BME280;19522;45.656;11.302;2023-12-22T00:10:56;96600.53;;;0.80;100.00
33161;BME280;19522;45.656;11.302;2023-12-22T00:13:22;96602.59;;;1.41;98.60
33161;BME280;19522;45.656;11.302;2023-12-22T00:15:47;96641.84;;;1.17;99.40
33161;BME280;19522;45.656;11.302;2023-12-22T00:18:13;96599.16;;;0.84;100.00
33161;BME280;19522;45.656;11.302;2023-12-22T00:20:38;96607.22;;;0.76;100.00
33161;BME280;19522;45.656;11.302;2023-12-22T00:23:04;96646.56;;;1.07;100.00
33161;BME280;19522;45.656;11.302;2023-12-22T00:25:29;96634.88;;;1.39;100.00
33161;BME280;19522;45.656;11.302;2023-12-22T00:27:55;96641.91;;;1.01;100.00
33161;BME280;19522;45.656;11.302;2023-12-22T00:30:20;96643.94;;;0.90;100.00
33161;BME280;19522;45.656;11.302;2023-12-22T00:32:46;96643.41;;;0.95;100.00
33161;BME280;19522;45.656;11.302;2023-12-22T00:35:11;96651.28;;;0.88;100.00
33161;BME280;19522;45.656;11.302;2023-12-22T00:37:37;96643.31;;;1.20;100.00
33161;BME280;19522;45.656;11.302;2023-12-22T00:40:02;96601.28;;;1.37;100.00
33161;BME280;19522;45.656;11.302;2023-12-22T00:42:32;96623.53;;;0.98;100.00
33161;BME280;19522;45.656;11.302;2023-12-22T00:44:57;96613.25;;;1.49;100.00
33161;BME280;19522;45.656;11.302;2023-12-22T00:47:23;96590.88;;;1.11;100.00
33161;BME280;19522;45.656;11.302;2023-12-22T00:49:51;96628.94;;;1.21;100.00
33161;BME280;19522;45.656;11.302;2023-12-22T00:52:17;96639.69;;;1.44;100.00
33161;BME280;19522;45.656;11.302;2023-12-22T00:54:45;96629.13;;;1.51;100.00
33161;BME280;19522;45.656;11.302;2023-12-22T00:57:11;96562.19;;;1.04;100.00
33161;BME280;19522;45.656;11.302;2023-12-22T00:59:37;96596.16;;;0.87;100.00
33161;BME280;19522;45.656;11.302;2023-12-22T01:02:03;96641.47;;;1.20;100.00
33161;BME280;19522;45.656;11.302;2023-12-22T01:04:32;96591.38;;;1.14;100.00
33161;BME280;19522;45.656;11.302;2023-12-22T01:06:57;96630.19;;;1.42;100.00
33161;BME280;19522;45.656;11.302;2023-12-22T01:09:23;96599.47;;;1.29;100.00
33161;BME280;19522;45.656;11.302;2023-12-22T01:11:48;96624.06;;;1.56;100.00
33161;BME280;19522;45.656;11.302;2023-12-22T01:14:14;96581.88;;;1.12;100.00
33161;BME280;19522;45.656;11.302;2023-12-22T01:16:39;96626.38;;;1.91;99.58
33161;BME280;19522;45.656;11.302;2023-12-22T01:19:05;96629.03;;;1.91;97.79
33161;BME280;19522;45.656;11.302;2023-12-22T01:21:31;96620.84;;;1.92;97.92
33161;BME280;19522;45.656;11.302;2023-12-22T01:23:56;96600.00;;;1.56;100.00
33161;BME280;19522;45.656;11.302;2023-12-22T01:26:24;96599.53;;;1.52;100.00
33161;BME280;19522;45.656;11.302;2023-12-22T01:28:49;96628.91;;;1.61;100.00
33161;BME280;19522;45.656;11.302;2023-12-22T01:31:15;96643.44;;;1.90;99.58
33161;BME280;19522;45.656;11.302;2023-12-22T01:33:40;96647.72;;;1.99;98.68
33161;BME280;19522;45.656;11.302;2023-12-22T01:36:06;96665.53;;;1.92;100.00
33161;BME280;19522;45.656;11.302;2023-12-22T01:38:31;96637.41;;;1.96;99.49
33161;BME280;19522;45.656;11.302;2023-12-22T01:40:57;96578.97;;;1.99;99.34
33161;BME280;19522;45.656;11.302;2023-12-22T01:43:22;96561.78;;;1.70;100.00
33161;BME280;19522;45.656;11.302;2023-12-22T01:45:52;96502.47;;;1.12;100.00
33161;BME280;19522;45.656;11.302;2023-12-22T01:48:20;96565.81;;;1.90;100.00
33161;BME280;19522;45.656;11.302;2023-12-22T01:50:51;96596.91;;;1.91;100.00
33161;BME280;19522;45.656;11.302;2023-12-22T01:53:19;96599.25;;;1.94;99.79
33161;BME280;19522;45.656;11.302;2023-12-22T01:55:46;96591.47;;;2.22;97.76
33161;BME280;19522;45.656;11.302;2023-12-22T01:58:13;96596.59;;;2.32;97.88
33161;BME280;19522;45.656;11.302;2023-12-22T02:00:39;96610.28;;;2.14;97.65
33161;BME280;19522;45.656;11.302;2023-12-22T02:03:05;96624.06;;;2.11;98.72
33161;BME280;19522;45.656;11.302;2023-12-22T02:05:31;96631.59;;;2.07;99.50
33161;BME280;19522;45.656;11.302;2023-12-22T02:07:57;96620.81;;;2.39;96.74
33161;BME280;19522;45.656;11.302;2023-12-22T02:10:25;96586.00;;;1.77;98.53
33161;BME280;19522;45.656;11.302;2023-12-22T02:12:51;96613.69;;;2.08;99.68
33161;BME280;19522;45.656;11.302;2023-12-22T02:15:16;96622.38;;;2.33;97.42
33161;BME280;19522;45.656;11.302;2023-12-22T02:17:53;96599.50;;;2.22;98.83
33161;BME280;19522;45.656;11.302;2023-12-22T02:20:21;96604.00;;;2.45;98.04
33161;BME280;19522;45.656;11.302;2023-12-22T02:22:54;96603.72;;;2.40;97.95
33161;BME280;19522;45.656;11.302;2023-12-22T02:25:20;96602.25;;;2.14;97.98
33161;BME280;19522;45.656;11.302;2023-12-22T02:27:50;96588.59;;;2.62;96.60
33161;BME280;19522;45.656;11.302;2023-12-22T02:32:50;96590.34;;;2.40;95.90
33161;BME280;19522;45.656;11.302;2023-12-22T02:35:25;96559.28;;;2.07;97.44
33161;BME280;19522;45.656;11.302;2023-12-22T02:37:51;96599.63;;;2.29;98.33
33161;BME280;19522;45.656;11.302;2023-12-22T02:40:18;96584.72;;;2.64;96.75
33161;BME280;19522;45.656;11.302;2023-12-22T02:42:45;96563.38;;;2.71;95.25
33161;BME280;19522;45.656;11.302;2023-12-22T02:45:15;96551.63;;;2.72;94.58
33161;BME280;19522;45.656;11.302;2023-12-22T02:47:41;96553.38;;;2.35;95.92
33161;BME280;19522;45.656;11.302;2023-12-22T02:50:08;96553.72;;;2.32;96.76
33161;BME280;19522;45.656;11.302;2023-12-22T02:52:34;96564.72;;;2.37;98.10
33161;BME280;19522;45.656;11.302;2023-12-22T02:55:01;96567.63;;;2.65;96.65
33161;BME280;19522;45.656;11.302;2023-12-22T02:57:26;96577.88;;;2.62;96.08
33161;BME280;19522;45.656;11.302;2023-12-22T02:59:52;96589.88;;;2.66;95.63
33161;BME280;19522;45.656;11.302;2023-12-22T03:02:20;96545.88;;;2.45;95.88
33161;BME280;19522;45.656;11.302;2023-12-22T03:04:46;96560.13;;;2.46;96.63
33161;BME280;19522;45.656;11.302;2023-12-22T03:07:12;96547.66;;;2.00;98.22
33161;BME280;19522;45.656;11.302;2023-12-22T03:09:37;96574.50;;;2.30;99.31
33161;BME280;19522;45.656;11.302;2023-12-22T03:12:03;96584.97;;;2.40;98.10
33161;BME280;19522;45.656;11.302;2023-12-22T03:14:29;96606.41;;;2.16;99.09
33161;BME280;19522;45.656;11.302;2023-12-22T03:16:56;96576.53;;;2.28;98.70
33161;BME280;19522;45.656;11.302;2023-12-22T03:19:21;96537.69;;;1.70;99.70
33161;BME280;19522;45.656;11.302;2023-12-22T03:21:48;96580.06;;;2.43;99.59
33161;BME280;19522;45.656;11.302;2023-12-22T03:24:14;96595.84;;;2.38;99.01
33161;BME280;19522;45.656;11.302;2023-12-22T03:26:40;96555.44;;;2.10;99.16
33161;BME280;19522;45.656;11.302;2023-12-22T03:29:05;96530.84;;;1.91;98.53
33161;BME280;19522;45.656;11.302;2023-12-22T03:31:31;96526.38;;;2.22;97.27
33161;BME280;19522;45.656;11.302;2023-12-22T03:33:56;96572.66;;;2.45;97.06
33161;BME280;19522;45.656;11.302;2023-12-22T03:36:22;96589.06;;;2.12;100.00
33161;BME280;19522;45.656;11.302;2023-12-22T03:38:47;96570.59;;;2.17;99.26
33161;BME280;19522;45.656;11.302;2023-12-22T03:41:16;96537.34;;;2.27;99.29
33161;BME280;19522;45.656;11.302;2023-12-22T03:46:16;96581.22;;;2.11;100.00
33161;BME280;19522;45.656;11.302;2023-12-22T03:48:42;96538.63;;;2.16;100.00
33161;BME280;19522;45.656;11.302;2023-12-22T03:51:08;96581.84;;;2.13;100.00
33161;BME280;19522;45.656;11.302;2023-12-22T03:53:35;96549.09;;;2.41;98.08
33161;BME280;19522;45.656;11.302;2023-12-22T03:56:01;96596.25;;;2.35;98.50
33161;BME280;19522;45.656;11.302;2023-12-22T03:58:27;96592.28;;;2.61;98.78
33161;BME280;19522;45.656;11.302;2023-12-22T04:00:52;96582.97;;;2.87;96.29
33161;BME280;19522;45.656;11.302;2023-12-22T04:03:18;96583.16;;;2.70;96.73
33161;BME280;19522;45.656;11.302;2023-12-22T04:05:43;96594.22;;;2.52;97.28
33161;BME280;19522;45.656;11.302;2023-12-22T04:08:09;96605.72;;;2.91;96.78
33161;BME280;19522;45.656;11.302;2023-12-22T04:10:34;96581.03;;;2.80;96.39
33161;BME280;19522;45.656;11.302;2023-12-22T04:13:00;96510.88;;;2.62;95.09
33161;BME280;19522;45.656;11.302;2023-12-22T04:15:25;96583.03;;;3.23;93.60
33161;BME280;19522;45.656;11.302;2023-12-22T04:17:51;96589.53;;;2.99;94.33
33161;BME280;19522;45.656;11.302;2023-12-22T04:20:16;96583.34;;;2.84;95.25
33161;BME280;19522;45.656;11.302;2023-12-22T04:22:42;96584.06;;;2.77;95.47
33161;BME280;19522;45.656;11.302;2023-12-22T04:25:07;96587.22;;;2.96;94.59
33161;BME280;19522;45.656;11.302;2023-12-22T04:27:34;96566.69;;;2.88;95.31
33161;BME280;19522;45.656;11.302;2023-12-22T04:30:00;96578.16;;;2.67;96.43
33161;BME280;19522;45.656;11.302;2023-12-22T04:32:26;96608.03;;;2.64;97.11
33161;BME280;19522;45.656;11.302;2023-12-22T04:34:51;96595.44;;;2.79;96.53
33161;BME280;19522;45.656;11.302;2023-12-22T04:37:17;96598.94;;;2.80;96.09
33161;BME280;19522;45.656;11.302;2023-12-22T04:39:43;96609.50;;;2.82;96.75
33161;BME280;19522;45.656;11.302;2023-12-22T04:42:08;96603.44;;;2.49;96.70
33161;BME280;19522;45.656;11.302;2023-12-22T04:44:34;96615.31;;;3.00;95.54
33161;BME280;19522;45.656;11.302;2023-12-22T04:46:59;96627.97;;;2.76;96.15
33161;BME280;19522;45.656;11.302;2023-12-22T04:49:26;96609.66;;;2.95;94.75
33161;BME280;19522;45.656;11.302;2023-12-22T04:51:51;96598.00;;;2.58;96.35
33161;BME280;19522;45.656;11.302;2023-12-22T04:54:17;96596.66;;;2.92;94.70
33161;BME280;19522;45.656;11.302;2023-12-22T04:56:43;96573.34;;;2.92;94.74
33161;BME280;19522;45.656;11.302;2023-12-22T04:59:08;96613.66;;;3.14;93.55
33161;BME280;19522;45.656;11.302;2023-12-22T05:01:34;96632.63;;;2.98;94.90
33161;BME280;19522;45.656;11.302;2023-12-22T05:04:00;96631.59;;;3.14;94.84
33161;BME280;19522;45.656;11.302;2023-12-22T05:06:25;96594.66;;;3.31;91.49
33161;BME280;19522;45.656;11.302;2023-12-22T05:08:51;96629.13;;;3.64;89.10
33161;BME280;19522;45.656;11.302;2023-12-22T05:11:16;96600.75;;;3.39;88.55
33161;BME280;19522;45.656;11.302;2023-12-22T05:13:42;96617.34;;;3.28;89.56
33161;BME280;19522;45.656;11.302;2023-12-22T05:16:11;96624.34;;;3.44;90.05
33161;BME280;19522;45.656;11.302;2023-12-22T05:18:36;96631.06;;;3.55;89.75
33161;BME280;19522;45.656;11.302;2023-12-22T05:21:03;96610.84;;;3.37;89.28
33161;BME280;19522;45.656;11.302;2023-12-22T05:23:29;96627.94;;;3.88;87.29
33161;BME280;19522;45.656;11.302;2023-12-22T05:25:54;96621.53;;;3.67;88.08
33161;BME280;19522;45.656;11.302;2023-12-22T05:28:20;96633.13;;;3.53;88.95
33161;BME280;19522;45.656;11.302;2023-12-22T05:30:45;96593.16;;;3.80;86.53
33161;BME280;19522;45.656;11.302;2023-12-22T05:33:14;96614.38;;;3.74;85.98
33161;BME280;19522;45.656;11.302;2023-12-22T05:35:39;96619.25;;;4.08;85.11
33161;BME280;19522;45.656;11.302;2023-12-22T05:38:05;96584.91;;;4.03;84.19
33161;BME280;19522;45.656;11.302;2023-12-22T05:40:44;96581.50;;;4.16;83.78
33161;BME280;19522;45.656;11.302;2023-12-22T05:43:10;96600.84;;;4.33;82.62
33161;BME280;19522;45.656;11.302;2023-12-22T05:45:43;96586.75;;;4.24;82.50
33161;BME280;19522;45.656;11.302;2023-12-22T05:48:09;96580.78;;;4.29;81.22
33161;BME280;19522;45.656;11.302;2023-12-22T05:50:34;96554.94;;;4.28;80.67
33161;BME280;19522;45.656;11.302;2023-12-22T05:53:00;96547.75;;;4.63;78.64
33161;BME280;19522;45.656;11.302;2023-12-22T05:55:25;96552.22;;;5.33;70.74
33161;BME280;19522;45.656;11.302;2023-12-22T05:57:51;96510.50;;;5.84;65.43
33161;BME280;19522;45.656;11.302;2023-12-22T06:00:17;96533.97;;;6.24;63.14
33161;BME280;19522;45.656;11.302;2023-12-22T06:02:43;96508.06;;;6.30;61.18
33161;BME280;19522;45.656;11.302;2023-12-22T06:05:08;96530.78;;;6.88;58.88
33161;BME280;19522;45.656;11.302;2023-12-22T06:07:34;96527.16;;;7.59;55.19
33161;BME280;19522;45.656;11.302;2023-12-22T06:09:59;96546.94;;;7.92;50.95
33161;BME280;19522;45.656;11.302;2023-12-22T06:12:24;96516.50;;;8.54;47.26
33161;BME280;19522;45.656;11.302;2023-12-22T06:14:53;96572.50;;;9.53;47.56
33161;BME280;19522;45.656;11.302;2023-12-22T06:17:19;96609.16;;;8.17;57.87
33161;BME280;19522;45.656;11.302;2023-12-22T06:19:44;96626.22;;;7.07;63.32
33161;BME280;19522;45.656;11.302;2023-12-22T06:22:10;96620.00;;;6.19;66.54
33161;BME280;19522;45.656;11.302;2023-12-22T06:24:35;96648.84;;;6.32;67.54
33161;BME280;19522;45.656;11.302;2023-12-22T06:27:01;96645.13;;;6.19;68.81
33161;BME280;19522;45.656;11.302;2023-12-22T06:29:26;96656.53;;;5.73;72.10
33161;BME280;19522;45.656;11.302;2023-12-22T06:31:52;96654.94;;;5.37;74.67
33161;BME280;19522;45.656;11.302;2023-12-22T06:34:18;96631.50;;;4.95;76.92
33161;BME280;19522;45.656;11.302;2023-12-22T06:36:44;96624.22;;;4.54;79.93
33161;BME280;19522;45.656;11.302;2023-12-22T06:39:10;96658.50;;;4.74;80.18
33161;BME280;19522;45.656;11.302;2023-12-22T06:41:38;96662.56;;;4.70;81.23
33161;BME280;19522;45.656;11.302;2023-12-22T06:44:04;96656.63;;;4.52;81.25
33161;BME280;19522;45.656;11.302;2023-12-22T06:46:29;96650.59;;;4.44;81.94
33161;BME280;19522;45.656;11.302;2023-12-22T06:48:58;96669.28;;;4.30;82.51
33161;BME280;19522;45.656;11.302;2023-12-22T06:51:26;96681.88;;;4.30;82.47
33161;BME280;19522;45.656;11.302;2023-12-22T06:53:53;96691.47;;;4.17;83.71
33161;BME280;19522;45.656;11.302;2023-12-22T06:56:22;96679.25;;;4.15;83.32
33161;BME280;19522;45.656;11.302;2023-12-22T06:58:51;96683.41;;;4.17;83.70
33161;BME280;19522;45.656;11.302;2023-12-22T07:01:22;96659.59;;;4.14;83.48
33161;BME280;19522;45.656;11.302;2023-12-22T07:03:51;96679.91;;;4.17;83.59
33161;BME280;19522;45.656;11.302;2023-12-22T07:06:22;96706.44;;;4.27;84.00
33161;BME280;19522;45.656;11.302;2023-12-22T07:11:49;96694.00;;;4.04;83.44
33161;BME280;19522;45.656;11.302;2023-12-22T07:14:21;96717.03;;;3.92;84.28
33161;BME280;19522;45.656;11.302;2023-12-22T07:16:47;96673.66;;;3.95;84.22
33161;BME280;19522;45.656;11.302;2023-12-22T07:19:13;96701.06;;;3.90;84.85
33161;BME280;19522;45.656;11.302;2023-12-22T07:21:39;96700.38;;;3.81;85.67
33161;BME280;19522;45.656;11.302;2023-12-22T07:24:06;96698.56;;;4.03;85.46
33161;BME280;19522;45.656;11.302;2023-12-22T07:26:31;96657.97;;;3.77;84.53
33161;BME280;19522;45.656;11.302;2023-12-22T07:28:57;96730.03;;;4.10;85.02
33161;BME280;19522;45.656;11.302;2023-12-22T07:31:24;96740.31;;;4.06;84.80
33161;BME280;19522;45.656;11.302;2023-12-22T07:33:49;96703.69;;;4.42;81.74
33161;BME280;19522;45.656;11.302;2023-12-22T07:36:15;96746.38;;;4.73;79.66
33161;BME280;19522;45.656;11.302;2023-12-22T07:38:40;96738.13;;;4.31;81.49
33161;BME280;19522;45.656;11.302;2023-12-22T07:41:06;96762.78;;;4.20;83.75
33161;BME280;19522;45.656;11.302;2023-12-22T07:43:31;96749.72;;;4.53;81.19
33161;BME280;19522;45.656;11.302;2023-12-22T07:45:57;96771.00;;;3.97;84.62
33161;BME280;19522;45.656;11.302;2023-12-22T07:48:23;96756.69;;;3.74;86.55
33161;BME280;19522;45.656;11.302;2023-12-22T07:50:49;96769.19;;;3.67;87.78
33161;BME280;19522;45.656;11.302;2023-12-22T07:53:15;96776.38;;;3.82;87.82
33161;BME280;19522;45.656;11.302;2023-12-22T07:55:40;96745.69;;;3.69;87.12
33161;BME280;19522;45.656;11.302;2023-12-22T07:58:06;96769.19;;;3.82;87.14
33161;BME280;19522;45.656;11.302;2023-12-22T08:00:35;96773.34;;;3.85;86.81
33161;BME280;19522;45.656;11.302;2023-12-22T08:03:01;96766.84;;;3.79;86.84
33161;BME280;19522;45.656;11.302;2023-12-22T08:05:26;96766.66;;;3.81;86.81
33161;BME280;19522;45.656;11.302;2023-12-22T08:07:52;96800.94;;;4.09;85.49
33161;BME280;19522;45.656;11.302;2023-12-22T08:10:18;96799.59;;;4.19;85.04
33161;BME280;19522;45.656;11.302;2023-12-22T08:12:44;96769.88;;;3.91;85.03
33161;BME280;19522;45.656;11.302;2023-12-22T08:15:10;96807.38;;;3.99;87.22
33161;BME280;19522;45.656;11.302;2023-12-22T08:17:36;96775.66;;;4.25;85.38
33161;BME280;19522;45.656;11.302;2023-12-22T08:20:04;96803.72;;;4.37;85.43
33161;BME280;19522;45.656;11.302;2023-12-22T08:22:29;96786.75;;;4.00;86.33
33161;BME280;19522;45.656;11.302;2023-12-22T08:24:55;96799.81;;;4.40;86.80
33161;BME280;19522;45.656;11.302;2023-12-22T08:27:23;96791.75;;;4.40;85.69
33161;BME280;19522;45.656;11.302;2023-12-22T08:29:49;96810.56;;;4.40;86.93
33161;BME280;19522;45.656;11.302;2023-12-22T08:32:14;96810.94;;;4.73;84.95
33161;BME280;19522;45.656;11.302;2023-12-22T08:34:44;96827.16;;;5.02;83.56
33161;BME280;19522;45.656;11.302;2023-12-22T08:37:10;96849.06;;;5.20;82.24
33161;BME280;19522;45.656;11.302;2023-12-22T08:39:39;96847.63;;;5.24;80.47
33161;BME280;19522;45.656;11.302;2023-12-22T08:42:04;96853.22;;;5.23;81.41
33161;BME280;19522;45.656;11.302;2023-12-22T08:44:30;96843.28;;;5.23;79.98
33161;BME280;19522;45.656;11.302;2023-12-22T08:46:55;96865.44;;;5.25;80.65
33161;BME280;19522;45.656;11.302;2023-12-22T08:49:21;96853.41;;;5.21;80.25
33161;BME280;19522;45.656;11.302;2023-12-22T08:51:46;96860.03;;;5.47;78.84
33161;BME280;19522;45.656;11.302;2023-12-22T08:54:12;96858.09;;;5.63;78.41
33161;BME280;19522;45.656;11.302;2023-12-22T08:56:37;96874.88;;;5.65;78.50
33161;BME280;19522;45.656;11.302;2023-12-22T08:59:03;96857.59;;;5.81;80.00
33161;BME280;19522;45.656;11.302;2023-12-22T09:01:29;96865.03;;;5.78;78.95
33161;BME280;19522;45.656;11.302;2023-12-22T09:03:57;96867.63;;;5.93;77.66
33161;BME280;19522;45.656;11.302;2023-12-22T09:06:23;96872.41;;;5.98;75.50
33161;BME280;19522;45.656;11.302;2023-12-22T09:08:50;96849.84;;;6.34;74.78
33161;BME280;19522;45.656;11.302;2023-12-22T09:11:17;96870.22;;;6.50;76.33
33161;BME280;19522;45.656;11.302;2023-12-22T09:13:43;96875.00;;;6.55;76.15
33161;BME280;19522;45.656;11.302;2023-12-22T09:16:09;96859.91;;;6.67;74.14
33161;BME280;19522;45.656;11.302;2023-12-22T09:18:35;96849.44;;;6.99;73.28
33161;BME280;19522;45.656;11.302;2023-12-22T09:21:01;96873.34;;;7.23;72.39
33161;BME280;19522;45.656;11.302;2023-12-22T09:23:28;96850.09;;;7.35;71.30
33161;BME280;19522;45.656;11.302;2023-12-22T09:25:53;96839.69;;;7.72;66.03
33161;BME280;19522;45.656;11.302;2023-12-22T09:28:19;96874.75;;;8.19;67.11
33161;BME280;19522;45.656;11.302;2023-12-22T09:30:45;96860.56;;;8.31;66.72
33161;BME280;19522;45.656;11.302;2023-12-22T09:33:10;96857.75;;;8.71;62.52
33161;BME280;19522;45.656;11.302;2023-12-22T09:35:36;96871.31;;;9.35;64.01
33161;BME280;19522;45.656;11.302;2023-12-22T09:38:02;96847.72;;;9.67;60.34
33161;BME280;19522;45.656;11.302;2023-12-22T09:40:28;96846.25;;;9.72;60.04
33161;BME280;19522;45.656;11.302;2023-12-22T09:42:57;96866.22;;;10.21;59.15
33161;BME280;19522;45.656;11.302;2023-12-22T09:45:23;96848.69;;;10.42;57.90
33161;BME280;19522;45.656;11.302;2023-12-22T09:47:50;96846.50;;;10.33;58.01
33161;BME280;19522;45.656;11.302;2023-12-22T09:50:17;96851.75;;;10.65;57.66
33161;BME280;19522;45.656;11.302;2023-12-22T09:52:43;96837.28;;;10.71;58.99
33161;BME280;19522;45.656;11.302;2023-12-22T09:55:14;96794.06;;;10.69;54.78
33161;BME280;19522;45.656;11.302;2023-12-22T09:57:41;96822.06;;;11.66;53.66
33161;BME280;19522;45.656;11.302;2023-12-22T10:00:09;96829.06;;;12.45;51.57
33161;BME280;19522;45.656;11.302;2023-12-22T10:02:39;96825.63;;;12.38;50.30
33161;BME280;19522;45.656;11.302;2023-12-22T10:05:05;96842.69;;;12.74;49.59
33161;BME280;19522;45.656;11.302;2023-12-22T10:07:31;96823.31;;;12.59;49.60
33161;BME280;19522;45.656;11.302;2023-12-22T10:09:59;96816.75;;;13.13;50.63
33161;BME280;19522;45.656;11.302;2023-12-22T10:12:26;96813.50;;;13.45;49.15
33161;BME280;19522;45.656;11.302;2023-12-22T10:14:53;96786.88;;;13.86;48.34
33161;BME280;19522;45.656;11.302;2023-12-22T10:17:19;96768.19;;;13.44;46.54
33161;BME280;19522;45.656;11.302;2023-12-22T10:19:45;96797.28;;;13.89;47.38
33161;BME280;19522;45.656;11.302;2023-12-22T10:22:11;96813.66;;;13.89;47.28
33161;BME280;19522;45.656;11.302;2023-12-22T10:27:03;96789.22;;;13.99;44.36
33161;BME280;19522;45.656;11.302;2023-12-22T10:29:29;96798.53;;;13.64;45.63
33161;BME280;19522;45.656;11.302;2023-12-22T10:31:55;96807.97;;;13.28;47.44
33161;BME280;19522;45.656;11.302;2023-12-22T10:34:20;96785.06;;;12.66;47.89
33161;BME280;19522;45.656;11.302;2023-12-22T10:36:46;96777.47;;;12.39;49.18
33161;BME280;19522;45.656;11.302;2023-12-22T10:39:11;96781.03;;;12.27;51.18
33161;BME280;19522;45.656;11.302;2023-12-22T10:41:37;96792.75;;;12.16;52.51
33161;BME280;19522;45.656;11.302;2023-12-22T10:44:02;96810.25;;;11.96;51.60
33161;BME280;19522;45.656;11.302;2023-12-22T10:46:30;96807.56;;;12.08;51.29
33161;BME280;19522;45.656;11.302;2023-12-22T10:48:59;96813.41;;;12.41;49.96
33161;BME280;19522;45.656;11.302;2023-12-22T10:51:24;96794.44;;;12.58;49.46
33161;BME280;19522;45.656;11.302;2023-12-22T10:53:51;96797.06;;;13.39;49.41
33161;BME280;19522;45.656;11.302;2023-12-22T10:56:17;96745.06;;;13.63;46.79
33161;BME280;19522;45.656;11.302;2023-12-22T10:58:43;96777.34;;;14.28;45.12
33161;BME280;19522;45.656;11.302;2023-12-22T11:01:11;96762.03;;;14.49;43.86
33161;BME280;19522;45.656;11.302;2023-12-22T11:03:39;96770.03;;;15.33;42.54
33161;BME280;19522;45.656;11.302;2023-12-22T11:06:10;96786.63;;;15.86;40.45
33161;BME280;19522;45.656;11.302;2023-12-22T11:08:38;96775.66;;;16.29;40.42
33161;BME280;19522;45.656;11.302;2023-12-22T11:11:13;96777.31;;;16.35;39.69
33161;BME280;19522;45.656;11.302;2023-12-22T11:13:43;96791.66;;;16.52;40.77
33161;BME280;19522;45.656;11.302;2023-12-22T11:16:09;96790.50;;;17.02;39.26
33161;BME280;19522;45.656;11.302;2023-12-22T11:18:36;96804.28;;;17.74;38.73
33161;BME280;19522;45.656;11.302;2023-12-22T11:21:05;96792.09;;;18.42;37.34
33161;BME280;19522;45.656;11.302;2023-12-22T11:23:32;96789.66;;;18.35;36.36
33161;BME280;19522;45.656;11.302;2023-12-22T11:25:59;96769.16;;;18.73;35.53
33161;BME280;19522;45.656;11.302;2023-12-22T11:28:26;96783.38;;;19.40;35.32
33161;BME280;19522;45.656;11.302;2023-12-22T11:30:52;96786.75;;;20.31;33.01
33161;BME280;19522;45.656;11.302;2023-12-22T11:33:18;96768.94;;;19.93;33.24
33161;BME280;19522;45.656;11.302;2023-12-22T11:35:46;96756.56;;;19.22;34.23
33161;BME280;19522;45.656;11.302;2023-12-22T11:38:11;96765.75;;;19.02;34.85
33161;BME280;19522;45.656;11.302;2023-12-22T11:40:39;96763.28;;;19.40;34.77
33161;BME280;19522;45.656;11.302;2023-12-22T11:43:05;96784.69;;;19.88;33.48
33161;BME280;19522;45.656;11.302;2023-12-22T11:45:32;96767.13;;;19.39;33.29
33161;BME280;19522;45.656;11.302;2023-12-22T11:48:10;96764.69;;;18.87;33.70
33161;BME280;19522;45.656;11.302;2023-12-22T11:50:36;96766.09;;;17.93;35.17
33161;BME280;19522;45.656;11.302;2023-12-22T11:53:21;96774.91;;;17.59;37.54
33161;BME280;19522;45.656;11.302;2023-12-22T11:56:07;96774.91;;;17.69;37.98
33161;BME280;19522;45.656;11.302;2023-12-22T12:01:13;96784.78;;;17.96;36.26
33161;BME280;19522;45.656;11.302;2023-12-22T12:03:50;96769.13;;;17.86;35.42
33161;BME280;19522;45.656;11.302;2023-12-22T12:09:00;96748.28;;;17.34;36.63
33161;BME280;19522;45.656;11.302;2023-12-22T12:14:37;96796.03;;;17.38;37.08
33161;BME280;19522;45.656;11.302;2023-12-22T12:17:07;96781.19;;;17.18;37.29
33161;BME280;19522;45.656;11.302;2023-12-22T12:19:40;96780.66;;;17.42;37.41
33161;BME280;19522;45.656;11.302;2023-12-22T12:22:07;96793.25;;;17.22;37.25
33161;BME280;19522;45.656;11.302;2023-12-22T12:24:33;96798.75;;;17.12;38.02
33161;BME280;19522;45.656;11.302;2023-12-22T12:26:59;96785.25;;;17.00;36.79
33161;BME280;19522;45.656;11.302;2023-12-22T12:29:24;96808.94;;;17.63;37.65
33161;BME280;19522;45.656;11.302;2023-12-22T12:31:50;96766.13;;;17.72;35.60
33161;BME280;19522;45.656;11.302;2023-12-22T12:34:16;96772.97;;;18.06;35.32
33161;BME280;19522;45.656;11.302;2023-12-22T12:36:46;96774.34;;;17.83;36.60
33161;BME280;19522;45.656;11.302;2023-12-22T12:39:15;96795.22;;;17.63;36.60
33161;BME280;19522;45.656;11.302;2023-12-22T12:41:42;96791.28;;;17.02;36.05
33161;BME280;19522;45.656;11.302;2023-12-22T12:44:09;96794.66;;;17.51;36.37
33161;BME280;19522;45.656;11.302;2023-12-22T12:46:39;96801.25;;;17.65;36.28
33161;BME280;19522;45.656;11.302;2023-12-22T12:49:05;96783.13;;;18.11;36.32
33161;BME280;19522;45.656;11.302;2023-12-22T12:51:38;96812.94;;;18.59;36.18
33161;BME280;19522;45.656;11.302;2023-12-22T12:54:08;96782.66;;;18.74;33.57
33161;BME280;19522;45.656;11.302;2023-12-22T12:56:46;96788.88;;;18.95;32.71
33161;BME280;19522;45.656;11.302;2023-12-22T12:59:13;96786.41;;;18.08;33.64
33161;BME280;19522;45.656;11.302;2023-12-22T13:01:41;96785.03;;;17.89;35.15
33161;BME280;19522;45.656;11.302;2023-12-22T13:04:07;96786.38;;;18.23;35.79
33161;BME280;19522;45.656;11.302;2023-12-22T13:06:33;96766.53;;;18.47;33.70
33161;BME280;19522;45.656;11.302;2023-12-22T13:08:58;96766.34;;;18.17;33.69
33161;BME280;19522;45.656;11.302;2023-12-22T13:11:26;96785.31;;;17.93;33.98